createdAt,value
2022-09-28T00:01:17.990Z,5.77
2022-09-28T00:03:48.629Z,4.83
2022-09-28T00:06:19.131Z,5.53
2022-09-28T00:08:50.341Z,5.93
2022-09-28T00:11:20.705Z,5.47
2022-09-28T00:13:52.561Z,5.70
2022-09-28T00:16:23.982Z,5.97
2022-09-28T00:18:54.038Z,5.67
2022-09-28T00:21:24.149Z,6.30
2022-09-28T00:24:16.571Z,6.00
2022-09-28T00:26:48.246Z,4.33
2022-09-28T00:29:23.346Z,5.50
2022-09-28T00:31:54.297Z,6.03
2022-09-28T00:34:23.898Z,5.50
2022-09-28T00:36:52.293Z,4.97
2022-09-28T00:39:20.504Z,5.53
2022-09-28T00:41:48.780Z,5.97
2022-09-28T00:44:42.961Z,6.10
2022-09-28T00:47:32.372Z,5.70
2022-09-28T00:50:06.398Z,6.57
2022-09-28T00:52:39.252Z,6.10
2022-09-28T00:55:11.846Z,6.43
2022-09-28T00:57:44.472Z,6.43
2022-09-28T01:00:14.706Z,6.17
2022-09-28T01:02:43.518Z,6.07
2022-09-28T01:05:13.876Z,6.57
2022-09-28T01:07:43.815Z,4.30
2022-09-28T01:10:13.216Z,5.53
2022-09-28T01:12:41.355Z,5.30
2022-09-28T01:15:10.250Z,5.70
2022-09-28T01:17:53.525Z,5.40
2022-09-28T01:20:37.730Z,5.33
2022-09-28T01:23:47.257Z,5.33
2022-09-28T01:26:36.265Z,5.83
2022-09-28T01:29:12.075Z,5.47
2022-09-28T01:31:46.572Z,4.60
2022-09-28T01:34:20.260Z,5.73
2022-09-28T01:36:53.521Z,6.37
2022-09-28T01:39:27.462Z,6.27
2022-09-28T01:42:02.318Z,6.07
2022-09-28T01:44:39.911Z,6.10
2022-09-28T01:47:11.890Z,5.87
2022-09-28T01:49:43.554Z,6.63
2022-09-28T01:52:17.914Z,6.27
2022-09-28T01:54:51.102Z,5.97
2022-09-28T01:57:27.099Z,6.80
2022-09-28T01:59:59.972Z,6.10
2022-09-28T02:02:32.867Z,5.50
2022-09-28T02:05:06.191Z,5.70
2022-09-28T02:07:38.876Z,5.80
2022-09-28T02:10:14.257Z,5.80
2022-09-28T02:12:47.889Z,5.57
2022-09-28T02:15:21.300Z,5.57
2022-09-28T02:17:50.470Z,5.60
2022-09-28T02:20:18.901Z,4.97
2022-09-28T02:22:50.987Z,5.27
2022-09-28T02:25:25.051Z,4.50
2022-09-28T02:27:59.638Z,4.67
2022-09-28T02:30:28.269Z,4.90
2022-09-28T02:33:00.638Z,4.60
2022-09-28T02:35:28.910Z,4.90
2022-09-28T02:37:57.588Z,4.93
2022-09-28T02:40:30.036Z,4.93
2022-09-28T02:43:09.837Z,5.40
2022-09-28T02:45:49.243Z,5.83
2022-09-28T02:48:43.273Z,5.60
2022-09-28T02:51:21.685Z,6.10
2022-09-28T02:54:31.916Z,6.80
2022-09-28T02:57:13.312Z,6.30
2022-09-28T02:59:51.618Z,6.47
2022-09-28T03:02:27.582Z,6.53
2022-09-28T03:05:13.121Z,7.07
2022-09-28T03:07:46.603Z,7.53
2022-09-28T03:10:21.839Z,7.93
2022-09-28T03:12:52.654Z,6.90
2022-09-28T03:15:27.274Z,6.53
2022-09-28T03:17:55.932Z,8.13
2022-09-28T03:20:24.117Z,7.57
2022-09-28T03:23:19.606Z,8.30
2022-09-28T03:25:40.835Z,7.80
2022-09-28T03:28:09.065Z,8.33
2022-09-28T03:30:39.540Z,8.47
2022-09-28T03:33:08.012Z,8.17
2022-09-28T03:35:36.225Z,8.47
2022-09-28T03:38:04.224Z,8.47
2022-09-28T03:40:32.532Z,9.87
2022-09-28T03:43:02.073Z,9.50
2022-09-28T03:45:30.155Z,8.30
2022-09-28T03:48:00.309Z,8.03
2022-09-28T03:50:28.855Z,8.33
2022-09-28T03:52:57.073Z,8.57
2022-09-28T03:55:25.418Z,8.53
2022-09-28T03:57:57.045Z,8.97
2022-09-28T04:00:25.523Z,8.80
2022-09-28T04:02:54.941Z,9.50
2022-09-28T04:05:24.577Z,9.50
2022-09-28T04:07:54.027Z,9.43
2022-09-28T04:10:22.175Z,9.10
2022-09-28T04:12:51.193Z,9.13
2022-09-28T04:15:19.277Z,8.80
2022-09-28T04:17:48.429Z,9.00
2022-09-28T04:20:16.944Z,9.67
2022-09-28T04:22:46.452Z,8.80
2022-09-28T04:25:14.586Z,8.70
2022-09-28T04:28:00.307Z,6.33
2022-09-28T04:30:28.569Z,8.47
2022-09-28T04:32:56.653Z,8.53
2022-09-28T04:35:24.795Z,9.17
2022-09-28T04:37:54.340Z,9.17
2022-09-28T04:40:22.431Z,8.63
2022-09-28T04:42:55.728Z,8.87
2022-09-28T04:45:26.137Z,9.57
2022-09-28T04:47:54.688Z,9.30
2022-09-28T04:50:23.233Z,9.10
2022-09-28T04:52:51.193Z,8.53
2022-09-28T04:55:20.759Z,9.53
2022-09-28T04:57:49.176Z,9.20
2022-09-28T05:00:17.460Z,8.83
2022-09-28T05:02:45.593Z,9.50
2022-09-28T05:05:14.045Z,8.67
2022-09-28T05:07:42.138Z,9.10
2022-09-28T05:10:10.532Z,9.07
2022-09-28T05:12:40.282Z,9.60
2022-09-28T05:15:08.948Z,9.10
2022-09-28T05:17:36.955Z,8.70
2022-09-28T05:20:05.801Z,9.50
2022-09-28T05:22:34.499Z,8.90
2022-09-28T05:25:02.999Z,9.53
2022-09-28T05:27:31.269Z,8.00
2022-09-28T05:30:01.736Z,9.20
2022-09-28T05:32:29.843Z,8.33
2022-09-28T05:35:01.254Z,7.60
2022-09-28T05:37:29.246Z,8.40
2022-09-28T05:39:57.584Z,8.23
2022-09-28T05:42:26.351Z,9.00
2022-09-28T05:44:54.495Z,8.07
2022-09-28T05:47:23.912Z,8.57
2022-09-28T05:49:52.209Z,7.83
2022-09-28T05:52:20.682Z,8.43
2022-09-28T05:54:49.008Z,8.30
2022-09-28T05:57:17.364Z,8.50
2022-09-28T05:59:45.460Z,8.60
2022-09-28T06:02:13.595Z,8.67
2022-09-28T06:04:43.505Z,8.00
2022-09-28T06:07:12.106Z,8.80
2022-09-28T06:09:40.125Z,8.10
2022-09-28T06:12:08.609Z,8.80
2022-09-28T06:14:36.661Z,8.53
2022-09-28T06:17:04.739Z,7.07
2022-09-28T06:19:33.132Z,9.37
2022-09-28T06:22:02.521Z,8.23
2022-09-28T06:24:30.762Z,8.50
2022-09-28T06:26:59.084Z,8.30
2022-09-28T06:29:27.101Z,7.83
2022-09-28T06:31:56.220Z,8.80
2022-09-28T06:34:25.070Z,9.00
2022-09-28T06:36:53.078Z,8.13
2022-09-28T06:39:22.600Z,8.80
2022-09-28T06:41:50.966Z,8.47
2022-09-28T06:44:19.180Z,9.40
2022-09-28T06:46:47.401Z,8.73
2022-09-28T06:49:19.314Z,8.67
2022-09-28T06:51:47.716Z,10.00
2022-09-28T06:54:16.116Z,8.70
2022-09-28T06:56:46.140Z,9.73
2022-09-28T06:59:14.331Z,8.53
2022-09-28T07:01:42.847Z,10.07
2022-09-28T07:04:11.423Z,9.43
2022-09-28T07:06:39.791Z,9.30
2022-09-28T07:09:21.731Z,9.90
2022-09-28T07:11:57.469Z,9.87
2022-09-28T07:14:45.579Z,9.20
2022-09-28T07:17:14.927Z,9.30
2022-09-28T07:19:43.466Z,10.07
2022-09-28T07:22:18.985Z,9.70
2022-09-28T07:24:49.175Z,9.80
2022-09-28T07:27:20.084Z,9.40
2022-09-28T07:29:48.141Z,10.23
2022-09-28T07:32:16.557Z,10.23
2022-09-28T07:34:44.901Z,8.57
2022-09-28T07:37:13.481Z,11.47
2022-09-28T07:39:59.914Z,10.10
2022-09-28T07:42:30.476Z,9.23
2022-09-28T07:44:59.169Z,11.13
2022-09-28T07:47:33.930Z,10.83
2022-09-28T07:50:03.252Z,10.43
2022-09-28T07:52:31.782Z,10.37
2022-09-28T07:55:04.547Z,10.27
2022-09-28T07:57:36.586Z,11.07
2022-09-28T08:00:07.345Z,10.97
2022-09-28T08:02:35.789Z,11.73
2022-09-28T08:05:04.372Z,9.97
2022-09-28T08:07:34.536Z,11.73
2022-09-28T08:10:02.609Z,10.23
2022-09-28T08:12:30.993Z,9.67
2022-09-28T08:15:00.389Z,10.00
2022-09-28T08:17:28.819Z,9.93
2022-09-28T08:20:14.442Z,11.80
2022-09-28T08:22:42.487Z,10.43
2022-09-28T08:25:10.923Z,9.50
2022-09-28T08:27:39.356Z,10.57
2022-09-28T08:30:10.243Z,10.30
2022-09-28T08:32:38.642Z,9.83
2022-09-28T08:35:07.374Z,9.53
2022-09-28T08:37:35.435Z,10.40
2022-09-28T08:40:03.755Z,8.87
2022-09-28T08:42:37.219Z,8.60
2022-09-28T08:45:14.887Z,8.70
2022-09-28T08:48:09.678Z,9.03
2022-09-28T08:50:48.496Z,8.00
2022-09-28T08:53:33.361Z,7.73
2022-09-28T08:56:05.274Z,7.50
2022-09-28T08:58:37.133Z,8.07
2022-09-28T09:01:10.133Z,7.53
2022-09-28T09:03:42.069Z,7.27
2022-09-28T09:06:23.202Z,6.50
2022-09-28T09:09:01.431Z,7.10
2022-09-28T09:11:48.945Z,6.67
2022-09-28T09:14:44.840Z,6.07
2022-09-28T09:17:24.014Z,5.67
2022-09-28T09:19:55.899Z,6.83
2022-09-28T09:22:36.224Z,6.47
2022-09-28T09:25:14.959Z,6.30
2022-09-28T09:27:54.892Z,5.80
2022-09-28T09:30:26.207Z,6.03
2022-09-28T09:33:34.857Z,6.60
2022-09-28T09:36:22.874Z,6.10
2022-09-28T09:39:02.195Z,6.03
2022-09-28T09:41:45.499Z,5.57
2022-09-28T09:44:30.210Z,6.23
2022-09-28T09:47:08.358Z,6.00
2022-09-28T09:49:41.234Z,5.30
2022-09-28T09:52:16.749Z,4.80
2022-09-28T09:54:49.141Z,4.97
2022-09-28T09:57:21.851Z,5.27
2022-09-28T09:59:50.921Z,4.50
2022-09-28T10:02:25.415Z,4.77
2022-09-28T10:04:58.747Z,4.30
2022-09-28T10:07:32.622Z,5.20
2022-09-28T10:10:03.633Z,5.60
2022-09-28T10:12:32.345Z,5.57
2022-09-28T10:15:09.991Z,5.70
2022-09-28T10:17:39.218Z,5.50
2022-09-28T10:20:13.882Z,5.57
2022-09-28T10:22:42.443Z,4.47
2022-09-28T10:25:12.531Z,5.70
2022-09-28T10:27:46.183Z,4.80
2022-09-28T10:30:19.106Z,5.10
2022-09-28T10:32:48.955Z,4.63
2022-09-28T10:35:28.124Z,5.43
2022-09-28T10:38:00.480Z,5.30
2022-09-28T10:40:34.724Z,4.87
2022-09-28T10:43:04.637Z,5.70
2022-09-28T10:45:37.892Z,4.97
2022-09-28T10:48:15.074Z,5.37
2022-09-28T10:50:44.706Z,5.07
2022-09-28T10:53:19.375Z,4.60
2022-09-28T10:56:00.589Z,4.20
2022-09-28T10:58:33.661Z,4.87
2022-09-28T11:01:04.994Z,4.10
2022-09-28T11:03:33.977Z,4.43
2022-09-28T11:06:06.912Z,4.30
2022-09-28T11:08:38.707Z,4.10
2022-09-28T11:11:10.343Z,5.43
2022-09-28T11:13:45.310Z,4.90
2022-09-28T11:16:35.227Z,4.60
2022-09-28T11:19:06.962Z,4.07
2022-09-28T11:21:46.202Z,2.60
2022-09-28T11:24:23.299Z,3.03
2022-09-28T11:26:56.634Z,3.00
2022-09-28T11:29:32.226Z,3.30
2022-09-28T11:32:03.372Z,4.20
2022-09-28T11:34:58.110Z,3.97
2022-09-28T11:37:40.039Z,2.60
2022-09-28T11:40:21.468Z,3.90
2022-09-28T11:42:59.972Z,4.30
2022-09-28T11:45:49.880Z,4.30
2022-09-28T11:48:23.502Z,3.97
2022-09-28T11:50:56.084Z,4.40
2022-09-28T11:53:31.667Z,3.33
2022-09-28T11:56:08.838Z,4.87
2022-09-28T11:58:42.441Z,5.03
2022-09-28T12:01:25.405Z,4.10
2022-09-28T12:03:58.605Z,4.13
2022-09-28T12:06:36.134Z,3.83
2022-09-28T12:09:18.116Z,3.70
2022-09-28T12:11:50.524Z,4.67
2022-09-28T12:14:23.167Z,4.00
2022-09-28T12:17:07.461Z,3.70
2022-09-28T12:19:41.399Z,4.40
2022-09-28T12:22:17.357Z,3.93
2022-09-28T12:24:50.350Z,3.77
2022-09-28T12:27:25.478Z,4.20
2022-09-28T12:30:00.203Z,4.10
2022-09-28T12:32:35.745Z,3.90
2022-09-28T12:35:04.511Z,3.73
2022-09-28T12:37:45.784Z,3.60
2022-09-28T12:40:32.889Z,3.73
2022-09-28T12:43:17.751Z,2.83
2022-09-28T12:46:12.999Z,3.40
2022-09-28T12:49:27.240Z,3.77
2022-09-28T12:51:50.534Z,3.77
2022-09-28T12:54:39.034Z,3.87
2022-09-28T12:57:31.137Z,3.97
2022-09-28T13:00:05.631Z,3.30
2022-09-28T13:03:03.894Z,3.67
2022-09-28T13:06:07.013Z,3.40
2022-09-28T13:08:42.947Z,3.73
2022-09-28T13:11:22.924Z,3.10
2022-09-28T13:14:02.006Z,3.10
2022-09-28T13:16:39.092Z,3.27
2022-09-28T13:19:23.188Z,3.90
2022-09-28T13:22:01.470Z,3.47
2022-09-28T13:24:34.913Z,3.27
2022-09-28T13:27:10.985Z,3.30
2022-09-28T13:29:42.094Z,3.50
2022-09-28T13:32:12.927Z,3.10
2022-09-28T13:34:41.914Z,3.50
2022-09-28T13:37:21.344Z,2.80
2022-09-28T13:39:54.085Z,3.40
2022-09-28T13:42:51.560Z,3.20
2022-09-28T13:45:36.351Z,3.17
2022-09-28T13:48:17.441Z,3.63
2022-09-28T13:51:26.223Z,2.70
2022-09-28T13:54:15.931Z,3.13
2022-09-28T13:56:53.256Z,2.20
2022-09-28T13:59:28.096Z,3.10
2022-09-28T14:02:06.805Z,3.27
2022-09-28T14:04:56.489Z,3.17
2022-09-28T14:10:18.712Z,3.37
2022-09-28T14:12:49.367Z,3.00
2022-09-28T14:15:40.782Z,3.70
2022-09-28T14:18:23.874Z,2.93
2022-09-28T14:21:03.505Z,2.93
2022-09-28T14:23:53.440Z,3.30
2022-09-28T14:26:54.061Z,2.87
2022-09-28T14:29:31.531Z,2.77
2022-09-28T14:32:05.385Z,2.90
2022-09-28T14:34:38.826Z,2.90
2022-09-28T14:37:38.244Z,3.00
2022-09-28T14:40:35.646Z,2.93
2022-09-28T14:43:28.523Z,3.20
2022-09-28T14:46:32.421Z,3.40
2022-09-28T14:49:04.114Z,2.90
2022-09-28T14:52:08.647Z,3.00
2022-09-28T14:54:47.445Z,2.77
2022-09-28T14:57:21.834Z,3.00
2022-09-28T14:59:50.540Z,3.10
2022-09-28T15:02:26.303Z,2.40
2022-09-28T15:05:00.222Z,1.53
2022-09-28T15:07:33.019Z,2.43
2022-09-28T15:10:03.570Z,2.23
2022-09-28T15:12:32.502Z,2.70
2022-09-28T15:15:02.660Z,2.77
2022-09-28T15:17:38.540Z,2.50
2022-09-28T15:20:30.031Z,2.30
2022-09-28T15:23:00.293Z,2.23
2022-09-28T15:25:31.897Z,2.20
2022-09-28T15:28:03.701Z,2.50
2022-09-28T15:30:33.781Z,2.33
2022-09-28T15:33:18.551Z,2.30
2022-09-28T15:35:49.936Z,3.37
2022-09-28T15:38:18.753Z,2.87
2022-09-28T15:40:48.922Z,3.30
2022-09-28T15:43:27.252Z,2.50
2022-09-28T15:46:02.844Z,2.73
2022-09-28T15:48:35.240Z,2.30
2022-09-28T15:51:11.041Z,2.00
2022-09-28T15:53:44.675Z,2.20
2022-09-28T15:56:14.640Z,2.70
2022-09-28T15:58:43.473Z,2.47
2022-09-28T16:01:36.287Z,2.20
2022-09-28T16:04:37.573Z,2.23
2022-09-28T16:07:40.144Z,2.10
2022-09-28T16:10:31.329Z,3.63
2022-09-28T16:13:12.120Z,2.10
2022-09-28T16:15:43.287Z,2.00
2022-09-28T16:18:21.202Z,2.20
2022-09-28T16:20:52.371Z,2.20
2022-09-28T16:23:27.306Z,2.03
2022-09-28T16:26:00.307Z,2.23
2022-09-28T16:28:52.162Z,1.67
2022-09-28T16:31:29.746Z,2.00
2022-09-28T16:34:01.547Z,2.40
2022-09-28T16:36:40.296Z,2.00
2022-09-28T16:39:10.009Z,2.20
2022-09-28T16:41:40.156Z,2.63
2022-09-28T16:44:18.275Z,2.10
2022-09-28T16:46:47.362Z,2.37
2022-09-28T16:49:20.198Z,2.50
2022-09-28T16:51:49.245Z,2.10
2022-09-28T16:54:36.918Z,1.77
2022-09-28T16:57:07.264Z,1.90
2022-09-28T16:59:38.848Z,2.00
2022-09-28T17:02:45.652Z,2.47
2022-09-28T17:05:16.147Z,2.50
2022-09-28T17:07:45.752Z,2.07
2022-09-28T17:10:18.656Z,3.20
2022-09-28T17:12:47.736Z,2.50
2022-09-28T17:15:19.751Z,1.90
2022-09-28T17:17:48.915Z,1.67
2022-09-28T17:20:23.404Z,1.90
2022-09-28T17:22:54.954Z,1.97
2022-09-28T17:25:25.900Z,2.10
2022-09-28T17:27:57.820Z,2.40
2022-09-28T17:30:27.451Z,1.93
2022-09-28T17:32:55.697Z,1.93
2022-09-28T17:35:25.396Z,2.17
2022-09-28T17:37:54.560Z,2.00
2022-09-28T17:40:25.893Z,2.03
2022-09-28T17:42:56.460Z,2.43
2022-09-28T17:45:28.772Z,1.90
2022-09-28T17:47:57.887Z,2.20
2022-09-28T17:50:28.070Z,1.97
2022-09-28T17:52:58.310Z,1.90
2022-09-28T17:55:28.674Z,2.10
2022-09-28T17:57:56.837Z,2.33
2022-09-28T18:00:28.093Z,1.80
2022-09-28T18:02:56.576Z,2.20
2022-09-28T18:05:25.754Z,1.67
2022-09-28T18:07:53.999Z,1.80
2022-09-28T18:10:23.947Z,1.80
2022-09-28T18:12:52.291Z,1.53
2022-09-28T18:15:21.101Z,2.13
2022-09-28T18:17:50.753Z,1.80
2022-09-28T18:20:18.994Z,2.00
2022-09-28T18:22:47.760Z,2.17
2022-09-28T18:25:16.174Z,1.40
2022-09-28T18:27:44.419Z,2.20
2022-09-28T18:30:13.191Z,1.70
2022-09-28T18:32:41.644Z,1.87
2022-09-28T18:35:14.491Z,1.90
2022-09-28T18:37:43.048Z,1.60
2022-09-28T18:40:14.494Z,2.20
2022-09-28T18:42:43.573Z,1.40
2022-09-28T18:45:13.363Z,1.70
2022-09-28T18:47:44.619Z,1.50
2022-09-28T18:50:15.541Z,1.30
2022-09-28T18:52:44.871Z,1.43
2022-09-28T18:55:13.692Z,1.20
2022-09-28T18:57:43.606Z,1.30
2022-09-28T19:00:15.284Z,1.40
2022-09-28T19:02:43.654Z,1.10
2022-09-28T19:05:13.304Z,1.10
2022-09-28T19:07:41.758Z,1.60
2022-09-28T19:10:10.324Z,1.67
2022-09-28T19:12:38.454Z,1.60
2022-09-28T19:15:07.561Z,1.60
2022-09-28T19:17:35.732Z,1.30
2022-09-28T19:20:03.900Z,1.40
2022-09-28T19:22:33.554Z,1.30
2022-09-28T19:25:01.669Z,1.30
2022-09-28T19:27:29.748Z,1.57
2022-09-28T19:29:58.352Z,1.40
2022-09-28T19:32:26.606Z,1.33
2022-09-28T19:34:54.665Z,1.43
2022-09-28T19:37:22.798Z,1.30
2022-09-28T19:39:52.251Z,1.43
2022-09-28T19:42:20.285Z,1.50
2022-09-28T19:44:48.329Z,1.00
2022-09-28T19:47:17.372Z,1.50
2022-09-28T19:49:45.360Z,1.60
2022-09-28T19:52:17.293Z,1.60
2022-09-28T19:54:52.173Z,1.47
2022-09-28T19:57:21.809Z,1.60
2022-09-28T19:59:52.649Z,1.50
2022-09-28T20:02:21.687Z,1.30
2022-09-28T20:04:50.554Z,1.50
2022-09-28T20:07:18.746Z,1.17
2022-09-28T20:09:46.873Z,1.30
2022-09-28T20:12:15.046Z,1.50
2022-09-28T20:14:44.592Z,1.40
2022-09-28T20:17:12.770Z,1.30
2022-09-28T20:19:41.206Z,1.07
2022-09-28T20:22:09.776Z,1.47
2022-09-28T20:24:37.880Z,1.57
2022-09-28T20:27:06.085Z,1.40
2022-09-28T20:29:34.804Z,1.40
2022-09-28T20:32:05.514Z,1.50
2022-09-28T20:34:34.781Z,1.50
2022-09-28T20:37:02.897Z,1.10
2022-09-28T20:39:30.986Z,1.10
2022-09-28T20:41:59.120Z,1.20
2022-09-28T20:44:27.398Z,1.40
2022-09-28T20:46:56.382Z,1.13
2022-09-28T20:49:27.305Z,1.23
2022-09-28T20:51:55.601Z,1.23
2022-09-28T20:54:23.684Z,1.10
2022-09-28T20:56:51.805Z,1.27
2022-09-28T20:59:22.711Z,1.13
2022-09-28T21:01:51.136Z,1.17
2022-09-28T21:04:19.727Z,1.10
2022-09-28T21:06:49.376Z,1.20
2022-09-28T21:09:17.645Z,1.33
2022-09-28T21:11:45.708Z,1.40
2022-09-28T21:14:13.902Z,1.10
2022-09-28T21:16:42.023Z,1.10
2022-09-28T21:19:10.183Z,1.10
2022-09-28T21:21:38.438Z,1.20
2022-09-28T21:24:08.563Z,1.37
2022-09-28T21:26:36.807Z,1.10
2022-09-28T21:29:07.250Z,1.10
2022-09-28T21:31:40.259Z,1.10
2022-09-28T21:34:08.814Z,1.10
2022-09-28T21:36:36.808Z,1.03
2022-09-28T21:39:10.086Z,1.00
2022-09-28T21:41:40.879Z,1.00
2022-09-28T21:44:09.838Z,1.10
2022-09-28T21:46:39.816Z,0.93
2022-09-28T21:49:09.754Z,1.30
2022-09-28T21:51:38.599Z,1.47
2022-09-28T21:54:06.912Z,1.00
2022-09-28T21:56:35.115Z,0.90
2022-09-28T21:59:04.560Z,1.17
2022-09-28T22:01:32.708Z,1.00
2022-09-28T22:04:01.219Z,1.20
2022-09-28T22:06:29.486Z,1.30
2022-09-28T22:08:58.335Z,1.00
2022-09-28T22:11:28.340Z,1.07
2022-09-28T22:13:59.071Z,0.90
2022-09-28T22:16:30.841Z,1.13
2022-09-28T22:18:59.425Z,1.07
2022-09-28T22:21:29.530Z,1.40
2022-09-28T22:24:01.138Z,1.40
2022-09-28T22:26:31.101Z,1.20
2022-09-28T22:29:00.829Z,0.83
2022-09-28T22:31:32.956Z,1.27
2022-09-28T22:34:01.345Z,1.10
2022-09-28T22:36:30.462Z,1.30
2022-09-28T22:38:59.549Z,1.07
2022-09-28T22:41:28.442Z,1.33
2022-09-28T22:43:56.878Z,1.00
2022-09-28T22:46:27.822Z,1.23
2022-09-28T22:48:58.922Z,1.13
2022-09-28T22:51:29.029Z,1.30
2022-09-28T22:53:57.845Z,1.30
2022-09-28T22:56:26.295Z,1.33
2022-09-28T22:58:54.781Z,1.43
2022-09-28T23:01:25.029Z,1.10
2022-09-28T23:03:54.207Z,1.40
2022-09-28T23:06:26.370Z,1.30
2022-09-28T23:08:54.771Z,1.60
2022-09-28T23:11:22.958Z,1.50
2022-09-28T23:13:51.812Z,1.37
2022-09-28T23:16:20.813Z,1.60
2022-09-28T23:18:49.987Z,1.60
2022-09-28T23:21:20.258Z,1.60
2022-09-28T23:23:53.563Z,1.70
2022-09-28T23:26:24.057Z,1.63
2022-09-28T23:28:52.976Z,1.80
2022-09-28T23:31:23.470Z,1.70
2022-09-28T23:33:52.581Z,2.00
2022-09-28T23:36:20.631Z,2.07
2022-09-28T23:38:50.493Z,1.87
2022-09-28T23:41:19.232Z,1.87
2022-09-28T23:43:47.295Z,2.00
2022-09-28T23:46:20.513Z,1.90
2022-09-28T23:48:49.615Z,2.17
2022-09-28T23:51:18.391Z,1.90
2022-09-28T23:53:46.495Z,1.70
2022-09-28T23:56:16.211Z,1.70
2022-09-28T23:58:44.599Z,1.70
